createdAt,value
2022-08-03T00:00:39.632Z,21.10
2022-08-03T00:03:09.199Z,22.60
2022-08-03T00:05:37.975Z,22.40
2022-08-03T00:08:06.311Z,22.20
2022-08-03T00:10:35.031Z,22.40
2022-08-03T00:15:31.612Z,22.00
2022-08-03T00:18:02.293Z,24.90
2022-08-03T00:20:34.964Z,22.30
2022-08-03T00:27:59.865Z,22.20
2022-08-03T00:30:30.810Z,22.50
2022-08-03T00:32:59.556Z,21.80
2022-08-03T00:35:36.866Z,26.40
2022-08-03T00:38:17.730Z,20.80
2022-08-03T00:40:45.923Z,21.70
2022-08-03T00:43:15.958Z,21.00
2022-08-03T00:45:44.501Z,20.60
2022-08-03T00:48:19.545Z,22.10
2022-08-03T00:53:28.738Z,21.50
2022-08-03T00:55:56.965Z,19.90
2022-08-03T00:58:25.283Z,20.60
2022-08-03T01:00:53.410Z,21.80
2022-08-03T01:05:54.913Z,23.00
2022-08-03T01:08:34.501Z,20.30
2022-08-03T01:11:11.273Z,21.90
2022-08-03T01:14:03.618Z,21.90
2022-08-03T01:16:43.148Z,20.00
2022-08-03T01:19:26.677Z,21.80
2022-08-03T01:22:11.537Z,21.90
2022-08-03T01:24:51.733Z,21.70
2022-08-03T01:27:26.742Z,21.70
2022-08-03T01:30:12.005Z,21.70
2022-08-03T01:32:59.108Z,20.60
2022-08-03T01:35:38.365Z,20.00
2022-08-03T01:38:11.422Z,20.20
2022-08-03T01:40:42.318Z,21.60
2022-08-03T01:43:14.435Z,19.80
2022-08-03T01:46:04.406Z,21.50
2022-08-03T01:48:33.684Z,21.50
2022-08-03T01:51:02.772Z,21.40
2022-08-03T01:53:42.776Z,20.00
2022-08-03T01:56:12.266Z,21.40
2022-08-03T01:58:42.573Z,19.70
2022-08-03T02:01:13.902Z,21.20
2022-08-03T02:03:59.526Z,20.00
2022-08-03T02:07:00.140Z,21.10
2022-08-03T02:09:21.672Z,21.10
2022-08-03T02:14:20.693Z,21.10
2022-08-03T02:16:51.470Z,21.10
2022-08-03T02:21:56.874Z,21.10
2022-08-03T02:24:29.815Z,18.90
2022-08-03T02:29:39.277Z,19.40
2022-08-03T02:32:13.561Z,21.00
2022-08-03T02:34:44.800Z,19.20
2022-08-03T02:37:14.600Z,21.00
2022-08-03T02:39:43.792Z,19.40
2022-08-03T02:42:14.708Z,20.70
2022-08-03T02:44:48.395Z,21.10
2022-08-03T02:47:21.372Z,23.80
2022-08-03T02:49:52.370Z,21.00
2022-08-03T02:52:23.480Z,20.40
2022-08-03T02:54:55.968Z,21.00
2022-08-03T02:57:25.913Z,20.90
2022-08-03T02:59:55.265Z,20.90
2022-08-03T03:02:26.156Z,19.60
2022-08-03T03:05:55.965Z,20.80
2022-08-03T03:12:51.482Z,20.70
2022-08-03T03:15:20.197Z,21.40
2022-08-03T03:17:51.500Z,20.70
2022-08-03T03:23:00.890Z,20.70
2022-08-03T03:25:30.104Z,20.60
2022-08-03T03:27:58.726Z,18.60
2022-08-03T03:30:27.984Z,19.30
2022-08-03T03:32:58.589Z,18.60
2022-08-03T03:35:27.986Z,20.60
2022-08-03T03:37:56.203Z,20.50
2022-08-03T03:42:53.201Z,18.40
2022-08-03T03:45:22.965Z,19.00
2022-08-03T03:47:51.918Z,20.50
2022-08-03T03:50:23.833Z,20.50
2022-08-03T03:52:51.852Z,19.10
2022-08-03T03:55:20.433Z,20.10
2022-08-03T03:57:48.507Z,19.30
2022-08-03T04:00:18.852Z,22.00
2022-08-03T04:05:34.088Z,19.00
2022-08-03T04:08:25.010Z,20.50
2022-08-03T04:11:03.756Z,20.00
2022-08-03T04:13:35.246Z,20.30
2022-08-03T04:16:05.243Z,18.00
2022-08-03T04:18:36.300Z,19.80
2022-08-03T04:21:06.682Z,20.20
2022-08-03T04:23:39.039Z,20.20
2022-08-03T04:26:09.666Z,18.60
2022-08-03T04:28:40.558Z,20.10
2022-08-03T04:31:09.165Z,19.40
2022-08-03T04:33:39.797Z,17.90
2022-08-03T04:36:10.334Z,20.10
2022-08-03T04:38:45.332Z,18.40
2022-08-03T04:43:42.630Z,18.00
2022-08-03T04:46:11.629Z,20.10
2022-08-03T04:51:13.339Z,19.10
2022-08-03T04:53:44.360Z,18.30
2022-08-03T04:56:12.508Z,18.90
2022-08-03T04:58:40.468Z,18.60
2022-08-03T05:01:08.698Z,18.40
2022-08-03T05:03:36.680Z,19.80
2022-08-03T05:06:11.211Z,20.00
2022-08-03T05:08:46.182Z,19.00
2022-08-03T05:11:16.409Z,20.10
2022-08-03T05:13:44.484Z,18.50
2022-08-03T05:18:42.165Z,19.60
2022-08-03T05:21:10.657Z,19.00
2022-08-03T05:23:38.607Z,23.30
2022-08-03T05:26:06.596Z,20.40
2022-08-03T05:28:35.856Z,24.60
2022-08-03T05:31:03.801Z,19.10
2022-08-03T05:33:32.094Z,18.70
2022-08-03T05:36:04.231Z,20.40
2022-08-03T05:38:34.825Z,20.10
2022-08-03T05:41:20.335Z,18.80
2022-08-03T05:43:53.743Z,20.40
2022-08-03T05:48:50.856Z,24.80
2022-08-03T05:51:18.985Z,20.10
2022-08-03T05:53:47.063Z,24.10
2022-08-03T05:56:16.655Z,19.80
2022-08-03T05:58:46.297Z,20.50
2022-08-03T06:01:16.036Z,20.70
2022-08-03T06:03:44.120Z,19.30
2022-08-03T06:06:12.632Z,23.60
2022-08-03T06:08:41.012Z,19.50
2022-08-03T06:13:38.242Z,20.00
2022-08-03T06:16:06.755Z,20.10
2022-08-03T06:18:36.349Z,21.10
2022-08-03T06:21:14.711Z,25.60
2022-08-03T06:23:53.155Z,20.90
2022-08-03T06:26:25.107Z,19.30
2022-08-03T06:28:54.404Z,21.20
2022-08-03T06:31:25.970Z,20.80
2022-08-03T06:34:34.447Z,20.00
2022-08-03T06:36:52.403Z,21.60
2022-08-03T06:39:23.449Z,24.50
2022-08-03T06:41:53.099Z,21.50
2022-08-03T06:44:21.199Z,20.90
2022-08-03T06:46:49.142Z,25.70
2022-08-03T06:49:18.949Z,19.00
2022-08-03T06:52:03.278Z,20.90
2022-08-03T06:54:35.988Z,21.80
2022-08-03T06:57:08.356Z,24.80
2022-08-03T07:00:08.706Z,21.70
2022-08-03T07:05:11.387Z,17.70
2022-08-03T07:10:17.192Z,20.30
2022-08-03T07:20:43.570Z,21.90
2022-08-03T07:23:19.167Z,21.60
2022-08-03T07:30:50.891Z,21.50
2022-08-03T07:35:48.926Z,21.90
2022-08-03T07:48:17.744Z,20.80
2022-08-03T07:53:16.063Z,22.20
2022-08-03T07:58:19.158Z,22.30
2022-08-03T08:08:21.624Z,22.50
2022-08-03T08:18:24.815Z,21.00
2022-08-03T08:20:56.097Z,22.90
2022-08-03T08:23:42.641Z,22.70
2022-08-03T08:28:40.716Z,26.70
2022-08-03T08:31:08.914Z,22.30
2022-08-03T08:38:55.557Z,23.20
2022-08-03T08:41:23.684Z,23.40
2022-08-03T08:46:30.835Z,24.00
2022-08-03T08:49:00.379Z,24.20
2022-08-03T08:51:50.556Z,24.50
2022-08-03T08:54:27.992Z,24.80
2022-08-03T08:57:00.033Z,24.90
2022-08-03T09:07:20.429Z,29.50
2022-08-03T09:10:10.948Z,24.30
2022-08-03T09:12:42.327Z,24.90
2022-08-03T09:15:23.275Z,25.60
2022-08-03T09:17:53.055Z,26.50
2022-08-03T09:20:23.503Z,26.70
2022-08-03T09:22:57.366Z,24.60
2022-08-03T09:25:31.882Z,25.10
2022-08-03T09:28:09.141Z,26.60
2022-08-03T09:30:38.415Z,27.30
2022-08-03T09:33:08.730Z,26.90
2022-08-03T09:35:58.125Z,27.50
2022-08-03T09:38:27.719Z,27.70
2022-08-03T09:41:00.771Z,26.50
2022-08-03T09:43:29.219Z,26.20
2022-08-03T09:46:08.780Z,28.00
2022-08-03T09:51:12.749Z,28.30
2022-08-03T09:53:58.522Z,25.90
2022-08-03T09:56:44.504Z,26.90
2022-08-03T09:59:13.637Z,27.40
2022-08-03T10:01:42.744Z,27.60
2022-08-03T10:04:14.884Z,28.90
2022-08-03T10:09:12.817Z,27.80
2022-08-03T10:11:43.394Z,27.70
2022-08-03T10:14:18.723Z,29.30
2022-08-03T10:16:47.738Z,27.60
2022-08-03T10:19:16.447Z,29.20
2022-08-03T10:21:58.877Z,29.20
2022-08-03T10:24:32.208Z,28.00
2022-08-03T10:27:04.932Z,29.80
2022-08-03T10:29:43.985Z,29.80
2022-08-03T10:32:20.254Z,29.10
2022-08-03T10:34:51.672Z,29.10
2022-08-03T10:37:31.346Z,28.70
2022-08-03T10:40:01.158Z,28.50
2022-08-03T10:42:32.381Z,30.00
2022-08-03T10:45:06.534Z,30.10
2022-08-03T10:47:36.414Z,28.70
2022-08-03T10:50:06.048Z,29.10
2022-08-03T10:52:38.249Z,30.20
2022-08-03T10:55:51.660Z,29.00
2022-08-03T10:58:57.474Z,29.60
2022-08-03T11:02:00.112Z,30.40
2022-08-03T11:04:30.722Z,30.40
2022-08-03T11:07:23.859Z,28.50
2022-08-03T11:09:52.935Z,29.00
2022-08-03T11:12:30.505Z,28.90
2022-08-03T11:15:09.090Z,30.60
2022-08-03T11:17:46.881Z,30.80
2022-08-03T11:20:47.789Z,30.60
2022-08-03T11:23:17.953Z,29.30
2022-08-03T11:26:11.370Z,30.60
2022-08-03T11:28:40.351Z,28.70
2022-08-03T11:31:51.671Z,29.70
2022-08-03T11:34:19.999Z,29.30
2022-08-03T11:37:24.634Z,30.70
2022-08-03T11:39:57.285Z,31.50
2022-08-03T11:42:46.986Z,30.10
2022-08-03T11:45:16.059Z,29.20
2022-08-03T11:47:50.244Z,30.80
2022-08-03T11:50:20.248Z,28.40
2022-08-03T11:52:49.221Z,30.70
2022-08-03T11:55:20.496Z,32.80
2022-08-03T11:59:10.876Z,27.80
2022-08-03T12:00:37.297Z,30.80
2022-08-03T12:03:08.945Z,29.20
2022-08-03T12:05:51.880Z,30.80
2022-08-03T12:08:32.198Z,30.80
2022-08-03T12:11:03.110Z,30.70
2022-08-03T12:14:45.073Z,30.10
2022-08-03T12:16:28.861Z,28.60
2022-08-03T12:19:00.251Z,30.80
2022-08-03T12:21:29.143Z,30.20
2022-08-03T12:24:01.548Z,29.70
2022-08-03T12:26:30.333Z,29.90
2022-08-03T12:28:59.175Z,31.00
2022-08-03T12:33:59.380Z,31.30
2022-08-03T12:36:28.742Z,30.00
2022-08-03T12:38:58.453Z,30.40
2022-08-03T12:41:36.284Z,30.90
2022-08-03T12:44:05.202Z,33.90
2022-08-03T12:46:35.707Z,31.70
2022-08-03T12:49:11.069Z,30.90
2022-08-03T12:51:57.100Z,31.60
2022-08-03T12:54:27.199Z,32.00
2022-08-03T12:56:59.655Z,31.50
2022-08-03T12:59:32.316Z,31.00
2022-08-03T13:02:09.322Z,30.40
2022-08-03T13:04:39.375Z,32.20
2022-08-03T13:07:14.291Z,32.80
2022-08-03T13:09:44.218Z,31.50
2022-08-03T13:12:23.480Z,31.90
2022-08-03T13:14:53.415Z,32.20
2022-08-03T13:19:52.775Z,32.10
2022-08-03T13:22:22.400Z,32.00
2022-08-03T13:24:52.865Z,33.60
2022-08-03T13:28:01.001Z,31.70
2022-08-03T13:30:10.805Z,32.90
2022-08-03T13:36:05.720Z,32.00
2022-08-03T13:38:38.282Z,32.00
2022-08-03T13:41:09.393Z,32.10
2022-08-03T13:46:08.516Z,31.30
2022-08-03T13:48:37.540Z,32.20
2022-08-03T13:51:22.092Z,31.00
2022-08-03T13:58:48.584Z,30.90
2022-08-03T14:01:16.863Z,32.00
2022-08-03T14:06:15.952Z,32.00
2022-08-03T14:11:13.011Z,30.90
2022-08-03T14:13:41.189Z,31.90
2022-08-03T14:16:09.869Z,31.90
2022-08-03T14:18:44.489Z,32.10
2022-08-03T14:21:14.913Z,31.90
2022-08-03T14:23:51.929Z,31.00
2022-08-03T14:28:50.725Z,31.40
2022-08-03T14:36:40.171Z,32.00
2022-08-03T14:44:06.155Z,31.10
2022-08-03T14:50:38.414Z,31.90
2022-08-03T14:51:56.196Z,29.80
2022-08-03T14:56:53.127Z,30.70
2022-08-03T14:59:21.301Z,30.60
2022-08-03T15:02:06.455Z,31.20
2022-08-03T15:07:06.842Z,31.40
2022-08-03T15:09:35.070Z,33.20
2022-08-03T15:12:06.611Z,31.00
2022-08-03T15:14:35.013Z,34.40
2022-08-03T15:20:03.088Z,29.80
2022-08-03T15:22:34.561Z,30.40
2022-08-03T15:28:04.168Z,31.00
2022-08-03T15:30:36.012Z,30.10
2022-08-03T15:33:04.617Z,32.90
2022-08-03T15:35:33.071Z,29.70
2022-08-03T15:38:07.306Z,31.20
2022-08-03T15:45:37.552Z,29.70
2022-08-03T15:48:06.389Z,30.10
2022-08-03T15:50:37.812Z,30.20
2022-08-03T15:53:07.377Z,33.70
2022-08-03T15:59:04.449Z,29.30
2022-08-03T16:03:38.503Z,31.30
2022-08-03T16:06:08.212Z,30.30
2022-08-03T16:08:37.646Z,31.30
2022-08-03T16:11:05.891Z,30.10
2022-08-03T16:14:12.356Z,30.20
2022-08-03T16:18:50.722Z,33.10
2022-08-03T16:21:20.031Z,29.70
2022-08-03T16:24:00.677Z,29.20
2022-08-03T16:26:30.055Z,30.10
2022-08-03T16:29:00.421Z,34.40
2022-08-03T16:31:29.200Z,32.80
2022-08-03T16:33:57.748Z,29.40
2022-08-03T16:36:26.826Z,29.10
2022-08-03T16:39:04.540Z,29.70
2022-08-03T16:41:53.957Z,28.90
2022-08-03T16:44:20.718Z,30.00
2022-08-03T16:46:49.292Z,27.80
2022-08-03T16:49:54.747Z,28.00
2022-08-03T16:52:07.125Z,28.40
2022-08-03T16:54:36.793Z,28.90
2022-08-03T16:57:05.655Z,29.30
2022-08-03T16:59:36.437Z,29.30
2022-08-03T17:02:10.215Z,28.00
2022-08-03T17:04:40.316Z,29.10
2022-08-03T17:07:09.232Z,27.60
2022-08-03T17:09:39.119Z,29.00
2022-08-03T17:17:16.327Z,28.20
2022-08-03T17:19:47.160Z,27.50
2022-08-03T17:22:19.498Z,27.30
2022-08-03T17:24:52.294Z,27.60
2022-08-03T17:28:49.511Z,28.80
2022-08-03T17:30:15.824Z,27.50
2022-08-03T17:32:57.655Z,27.90
2022-08-03T17:35:36.866Z,27.60
2022-08-03T17:38:11.993Z,28.40
2022-08-03T17:40:50.061Z,26.80
2022-08-03T17:44:14.281Z,27.30
2022-08-03T17:46:11.432Z,28.50
2022-08-03T17:48:42.067Z,27.90
2022-08-03T17:51:17.252Z,28.20
2022-08-03T17:53:54.137Z,27.20
2022-08-03T17:56:42.626Z,31.70
2022-08-03T17:59:50.725Z,28.50
2022-08-03T18:02:49.839Z,28.40
2022-08-03T18:05:21.895Z,27.90
2022-08-03T18:07:59.179Z,27.00
2022-08-03T18:13:57.673Z,27.40
2022-08-03T18:16:32.559Z,28.20
2022-08-03T18:19:09.327Z,27.20
2022-08-03T18:22:03.030Z,28.20
2022-08-03T18:24:32.629Z,26.60
2022-08-03T18:27:03.441Z,26.60
2022-08-03T18:29:33.718Z,27.70
2022-08-03T18:34:41.096Z,26.80
2022-08-03T18:37:25.780Z,27.90
2022-08-03T18:39:58.134Z,27.90
2022-08-03T18:42:27.190Z,27.60
2022-08-03T18:44:57.548Z,27.90
2022-08-03T18:47:54.014Z,28.00
2022-08-03T18:50:30.851Z,26.70
2022-08-03T18:53:16.380Z,25.90
2022-08-03T18:56:01.442Z,27.70
2022-08-03T18:58:38.670Z,26.70
2022-08-03T19:02:00.419Z,26.40
2022-08-03T19:04:10.969Z,27.90
2022-08-03T19:06:44.826Z,27.90
2022-08-03T19:09:22.859Z,27.10
2022-08-03T19:12:13.188Z,27.90
2022-08-03T19:14:52.453Z,27.90
2022-08-03T19:17:23.780Z,25.70
2022-08-03T19:19:59.672Z,27.40
2022-08-03T19:22:31.615Z,28.00
2022-08-03T19:25:02.440Z,26.90
2022-08-03T19:27:34.826Z,26.40
2022-08-03T19:30:19.792Z,26.50
2022-08-03T19:32:52.202Z,28.00
2022-08-03T19:35:46.464Z,28.20
2022-08-03T19:38:09.950Z,27.80
2022-08-03T19:40:44.292Z,25.00
2022-08-03T19:43:22.864Z,27.20
2022-08-03T19:46:05.816Z,28.00
2022-08-03T19:48:39.636Z,28.00
2022-08-03T19:51:12.684Z,27.90
2022-08-03T19:53:45.150Z,27.90
2022-08-03T19:56:17.590Z,27.90
2022-08-03T20:03:53.306Z,27.80
2022-08-03T20:06:24.154Z,27.80
2022-08-03T20:08:56.582Z,27.70
2022-08-03T20:11:28.882Z,27.40
2022-08-03T20:19:39.992Z,27.60
2022-08-03T20:22:14.302Z,27.60
2022-08-03T20:24:53.019Z,27.60
2022-08-03T20:27:30.168Z,29.40
2022-08-03T20:30:07.045Z,27.10
2022-08-03T20:35:10.012Z,27.50
2022-08-03T20:40:14.077Z,27.40
2022-08-03T20:45:58.382Z,27.40
2022-08-03T20:48:06.784Z,27.40
2022-08-03T20:50:39.637Z,27.30
2022-08-03T20:53:09.270Z,27.00
2022-08-03T21:06:15.897Z,27.00
2022-08-03T21:08:50.573Z,26.90
2022-08-03T21:11:20.357Z,26.90
2022-08-03T21:13:56.692Z,26.90
2022-08-03T21:19:01.474Z,26.80
2022-08-03T21:21:38.531Z,24.30
2022-08-03T21:24:08.977Z,26.80
2022-08-03T21:26:40.792Z,26.70
2022-08-03T21:31:41.312Z,26.70
2022-08-03T21:36:50.636Z,26.60
2022-08-03T21:44:28.708Z,26.50
2022-08-03T21:47:00.127Z,24.90
2022-08-03T21:50:07.811Z,26.50
2022-08-03T21:52:23.321Z,27.50
2022-08-03T21:54:55.246Z,26.50
2022-08-03T21:57:25.559Z,26.50
2022-08-03T21:59:55.963Z,25.20
2022-08-03T22:02:31.319Z,26.50
2022-08-03T22:07:35.929Z,25.20
2022-08-03T22:10:07.315Z,26.40
2022-08-03T22:12:36.821Z,26.30
2022-08-03T22:15:08.924Z,28.90
2022-08-03T22:17:56.334Z,26.30
2022-08-03T22:20:25.833Z,25.90
2022-08-03T22:23:00.926Z,25.00
2022-08-03T22:25:31.273Z,25.30
2022-08-03T22:28:03.245Z,25.00
2022-08-03T22:33:08.337Z,26.20
2022-08-03T22:35:47.319Z,26.20
2022-08-03T22:38:18.919Z,26.10
2022-08-03T22:40:50.946Z,26.20
2022-08-03T22:43:23.599Z,26.00
2022-08-03T22:46:08.835Z,26.00
2022-08-03T22:53:40.680Z,26.00
2022-08-03T22:56:09.452Z,24.70
2022-08-03T23:01:08.824Z,25.90
2022-08-03T23:04:00.897Z,25.90
2022-08-03T23:06:35.115Z,25.00
2022-08-03T23:09:06.976Z,25.70
2022-08-03T23:11:45.776Z,25.80
2022-08-03T23:14:16.273Z,25.80
2022-08-03T23:16:46.005Z,25.80
2022-08-03T23:19:17.334Z,25.70
2022-08-03T23:22:02.644Z,25.70
2022-08-03T23:24:37.133Z,25.70
2022-08-03T23:27:08.478Z,25.70
2022-08-03T23:29:38.235Z,25.70
2022-08-03T23:32:07.928Z,23.10
2022-08-03T23:37:22.528Z,25.60
2022-08-03T23:39:54.198Z,25.50
2022-08-03T23:42:23.358Z,25.50
2022-08-03T23:44:55.592Z,24.20
2022-08-03T23:52:52.330Z,25.30
2022-08-03T23:55:33.140Z,25.20
2022-08-03T23:58:11.336Z,23.80
